Snow/Ice From: 23-10-2018 22:46 Until: 24-10-2018 08:00 warning for: Snow/Ice Level: Yellow info button
suomi:
Liikennesää: Ajokeli on huono tienpintojen jäätymisen vuoksi.

svenska:
Trafikvädret: Väglaget är dåligt p.g.a. tillfrysning av vägytor.

english:
Traffic weather warning: Bad road conditions are expected because of ice-covered roads. 


Thunder radar more information blitzortung!


Löydät sääaseman tiedot myös:

European Weather Network

Finland Weather Exchange

Weather Underground

AWEKAS



Weather Underground säähistoriasivu

Päivittäin yhteenveto Tammikuu 25, 2017 Yksiköt:  Englantilaiset    Metriset   Molemmat
« Edellinen Päivä
Seuraava Päivä »
Päivittäin Viikoittain Kuukausittain Vuosittain Mukautettu
  Korkea: Matala: Keskiarvo:
Lämpötila: TemperatureF °F 19.8 °F 27 °F
Kastepiste: DewpointF °F 18.0 °F 24.6 °F
Kosteus: Humidity % 87 % 90 %
Tuulen nopeus: WindSpeedMPH mph 0.0 mph 0 mph
Tuulenpuuska: WindSpeedGustMPH mph - -
Tuuli:- - North
Ilmanpaine: PressureIn in 29.93 in -
Sade: 0.00 in    
Historical Graphs
 
 
Taulukkotiedot Tammikuu 25, 2017
Aika Lämpötila Kastepiste Ilmanpaine Tuuli Tuulen nopeus Tuulenpuuska Kosteus Sademäärä (tunneittain)
TemperatureF °F DewpointF °F PressureIn in Calm     Humidity % HourlyPrecipIn in
00:00 19.8 °F 18.0 °F 30.26 in Calm     93 % 0.00 in
00:15 19.9 °F 18.0 °F 30.25 in Calm     92 % 0.00 in
00:30 19.9 °F 18.0 °F 30.25 in Calm     92 % 0.00 in
00:45 19.9 °F 18.1 °F 30.25 in Calm     92 % 0.00 in
01:00 20.3 °F 18.3 °F 30.26 in Calm     92 % 0.00 in
01:15 20.5 °F 18.5 °F 30.26 in Calm     92 % 0.00 in
01:30 20.7 °F 18.7 °F 30.26 in Calm     92 % 0.00 in
01:45 20.8 °F 18.5 °F 30.26 in Calm     91 % 0.00 in
02:00 21.0 °F 18.9 °F 30.25 in Calm     91 % 0.00 in
02:15 21.2 °F 18.7 °F 30.25 in Calm     90 % 0.00 in
02:30 21.2 °F 18.7 °F 30.25 in Calm     90 % 0.00 in
02:45 21.2 °F 18.7 °F 30.25 in Calm     90 % 0.00 in
03:00 21.2 °F 18.7 °F 30.25 in Calm     90 % 0.00 in
03:15 21.4 °F 18.9 °F 30.24 in Calm     90 % 0.00 in
03:30 21.6 °F 18.7 °F 30.24 in Calm     89 % 0.00 in
03:45 21.6 °F 18.9 °F 30.24 in Calm     89 % 0.00 in
04:00 21.7 °F 19.0 °F 30.24 in Calm     89 % 0.00 in
04:15 21.9 °F 19.0 °F 30.25 in Calm     88 % 0.00 in
04:30 22.3 °F 19.2 °F 30.24 in Calm     88 % 0.00 in
04:45 22.3 °F 19.0 °F 30.24 in Calm     87 % 0.00 in
05:00 22.3 °F 18.9 °F 30.24 in Calm     87 % 0.00 in
05:15 22.1 °F 18.9 °F 30.24 in Calm     87 % 0.00 in
05:30 21.7 °F 18.7 °F 30.23 in Calm     88 % 0.00 in
05:45 21.4 °F 18.3 °F 30.24 in Calm     88 % 0.00 in
06:00 21.0 °F 18.1 °F 30.24 in Calm     88 % 0.00 in
06:15 20.8 °F 18.1 °F 30.24 in Calm     89 % 0.00 in
06:30 20.8 °F 18.1 °F 30.24 in Calm     89 % 0.00 in
06:45 21.4 °F 18.3 °F 30.23 in Calm     88 % 0.00 in
07:00 21.6 °F 18.7 °F 30.22 in Calm     88 % 0.00 in
07:15 21.7 °F 18.5 °F 30.22 in Calm     87 % 0.00 in
07:30 21.9 °F 18.7 °F 30.22 in Calm     87 % 0.00 in
07:45 21.9 °F 18.7 °F 30.22 in Calm     87 % 0.00 in
08:00 21.9 °F 18.9 °F 30.23 in Calm     88 % 0.00 in
08:15 21.9 °F 19.2 °F 30.22 in Calm     89 % 0.00 in
08:30 22.3 °F 19.8 °F 30.22 in Calm     90 % 0.00 in
08:45 22.6 °F 20.1 °F 30.21 in Calm     90 % 0.00 in
09:00 23.0 °F 20.5 °F 30.21 in Calm     90 % 0.00 in
09:15 23.5 °F 21.0 °F 30.22 in Calm     90 % 0.00 in
09:30 24.1 °F 21.6 °F 30.22 in Calm     90 % 0.00 in
09:45 24.4 °F 21.9 °F 30.21 in Calm     90 % 0.00 in
10:00 25.0 °F 22.5 °F 30.20 in Calm     90 % 0.00 in
10:15 25.9 °F 23.0 °F 30.20 in Calm     89 % 0.00 in
10:30 26.2 °F 23.2 °F 30.19 in Calm     88 % 0.00 in
10:45 26.6 °F 23.5 °F 30.19 in Calm     88 % 0.00 in
11:00 27.0 °F 23.9 °F 30.17 in Calm     88 % 0.00 in
11:15 27.1 °F 23.9 °F 30.18 in Calm     87 % 0.00 in
11:30 27.5 °F 24.1 °F 30.18 in Calm     87 % 0.00 in
11:45 27.9 °F 24.4 °F 30.17 in Calm     87 % 0.00 in
12:00 28.0 °F 24.8 °F 30.17 in Calm     87 % 0.00 in
12:15 28.4 °F 25.0 °F 30.16 in Calm     87 % 0.00 in
12:30 28.8 °F 25.3 °F 30.15 in Calm     87 % 0.00 in
12:45 28.8 °F 25.3 °F 30.14 in Calm     87 % 0.00 in
13:00 28.9 °F 25.7 °F 30.13 in Calm     87 % 0.00 in
13:15 29.3 °F 25.9 °F 30.12 in Calm     87 % 0.00 in
13:30 29.5 °F 26.1 °F 30.12 in Calm     87 % 0.00 in
13:45 29.5 °F 26.1 °F 30.11 in Calm     87 % 0.00 in
14:00 29.7 °F 26.2 °F 30.10 in Calm     87 % 0.00 in
14:15 29.7 °F 26.6 °F 30.09 in Calm     88 % 0.00 in
14:30 29.8 °F 26.6 °F 30.09 in Calm     88 % 0.00 in
14:45 30.0 °F 26.6 °F 30.08 in Calm     87 % 0.00 in
15:00 30.2 °F 26.8 °F 30.09 in Calm     87 % 0.00 in
15:15 30.4 °F 27.1 °F 30.08 in Calm     88 % 0.00 in
15:30 30.6 °F 27.3 °F 30.08 in Calm     88 % 0.00 in
15:45 30.6 °F 27.5 °F 30.08 in Calm     88 % 0.00 in
16:00 30.6 °F 27.7 °F 30.03 in Calm     89 % 0.00 in
16:15 30.4 °F 28.0 °F 30.04 in Calm     91 % 0.00 in
16:30 30.6 °F 28.0 °F 30.05 in Calm     90 % 0.00 in
16:45 30.7 °F 28.2 °F 30.04 in Calm     90 % 0.00 in
17:00 31.1 °F 28.6 °F 30.04 in Calm     90 % 0.00 in
17:15 31.3 °F 28.9 °F 30.03 in Calm     91 % 0.00 in
17:30 30.9 °F 29.3 °F 30.02 in Calm     93 % 0.00 in
17:45 31.5 °F 29.8 °F 30.01 in Calm     94 % 0.00 in
18:00 32.2 °F 30.6 °F 30.00 in Calm     94 % 0.00 in
18:15 32.5 °F 31.1 °F 30.00 in Calm     94 % 0.00 in
18:30 33.1 °F 31.3 °F 30.00 in Calm     93 % 0.00 in
18:45 33.4 °F 31.5 °F 29.99 in Calm     92 % 0.00 in
19:00 33.6 °F 31.6 °F 29.98 in Calm     92 % 0.00 in
19:15 33.8 °F 31.6 °F 29.98 in Calm     92 % 0.00 in
19:30 34.0 °F 32.2 °F 29.98 in Calm     93 % 0.00 in
19:45 34.0 °F 32.2 °F 29.98 in Calm     93 % 0.00 in
20:00 34.2 °F 32.5 °F 29.98 in Calm     94 % 0.00 in
20:15 34.2 °F 32.9 °F 29.96 in Calm     95 % 0.00 in
20:30 34.2 °F 32.9 °F 29.97 in Calm     95 % 0.00 in
20:45 34.3 °F 33.1 °F 29.97 in Calm     95 % 0.00 in
21:00 34.5 °F 33.3 °F 29.96 in Calm     95 % 0.00 in
21:15 34.5 °F 33.3 °F 29.96 in Calm     95 % 0.00 in
21:30 34.7 °F 33.6 °F 29.95 in Calm     96 % 0.00 in
21:45 34.9 °F 33.8 °F 29.93 in Calm     96 % 0.00 in
22:00 35.1 °F 33.8 °F 29.94 in Calm     95 % 0.00 in
22:15 35.2 °F 34.2 °F 29.94 in Calm     96 % 0.00 in
22:30 35.2 °F 34.2 °F 29.93 in Calm     96 % 0.00 in
22:45 35.2 °F 34.3 °F 29.93 in Calm     96 % 0.00 in
23:00 35.4 °F 34.5 °F 29.93 in Calm     96 % 0.00 in
23:15 35.4 °F 34.5 °F 29.93 in Calm     96 % 0.00 in
23:30 35.6 °F 34.5 °F 29.93 in Calm     96 % 0.00 in
23:45 35.8 °F 34.7 °F 29.93 in Calm     96 % 0.00 in
Esan sääasema
Terveisin Weather Underground - 2.75 mb

Alkuperäinen skripti  Jim McMurry - jmcmurry@mwt.net Sovitettu myös templatelle  Wim van der Kuil - Leuven-Template.eu

Laitteet joita käytämme:

Sääasema
Davis VP2

Sääasemaohjelma
Cumulus

Sääaseman tietokone
Asus EeePC

Palveluntarjoaja
Suncomet

Davis VP2

Cumulus

Asus EeePC

Suncomet